createdAt,value
2017-06-29T00:00:06.676Z,990.48
2017-06-29T00:01:19.542Z,990.47
2017-06-29T00:02:32.095Z,990.44
2017-06-29T00:03:44.680Z,990.42
2017-06-29T00:04:57.230Z,990.41
2017-06-29T00:06:09.781Z,990.41
2017-06-29T00:07:22.335Z,990.4
2017-06-29T00:08:34.893Z,990.39
2017-06-29T00:09:47.432Z,990.37
2017-06-29T00:11:00.010Z,990.37
2017-06-29T00:12:12.533Z,990.33
2017-06-29T00:13:25.078Z,990.32
2017-06-29T00:14:37.619Z,990.3
2017-06-29T00:15:50.227Z,990.29
2017-06-29T00:17:02.466Z,990.27
2017-06-29T00:18:14.714Z,990.29
2017-06-29T00:19:27.277Z,990.25
2017-06-29T00:20:39.831Z,990.24
2017-06-29T00:21:52.079Z,990.25
2017-06-29T00:23:04.868Z,990.22
2017-06-29T00:24:17.386Z,990.19
2017-06-29T00:25:29.936Z,990.12
2017-06-29T00:26:42.490Z,990.1
2017-06-29T00:27:55.051Z,990.07
2017-06-29T00:29:07.321Z,990.06
2017-06-29T00:30:19.921Z,990.05
2017-06-29T00:31:32.446Z,990.02
2017-06-29T00:32:44.982Z,990.03
2017-06-29T00:33:57.530Z,990.03
2017-06-29T00:35:10.078Z,990.08
2017-06-29T00:36:22.626Z,990.04
2017-06-29T00:37:35.175Z,990.01
2017-06-29T00:38:47.720Z,990.05
2017-06-29T00:40:00.261Z,990.07
2017-06-29T00:41:12.480Z,990.02
2017-06-29T00:42:25.031Z,990.05
2017-06-29T00:43:37.575Z,990.01
2017-06-29T00:44:50.449Z,990.03
2017-06-29T00:46:02.708Z,990.01
2017-06-29T00:47:15.272Z,990.03
2017-06-29T00:48:27.805Z,990.06
2017-06-29T00:49:40.356Z,990.08
2017-06-29T00:50:52.899Z,990.07
2017-06-29T00:52:05.474Z,990.11
2017-06-29T00:53:18.019Z,990.11
2017-06-29T00:54:30.582Z,990.1
2017-06-29T00:55:43.132Z,990.1
2017-06-29T00:56:55.654Z,990.14
2017-06-29T00:58:07.603Z,990.17
2017-06-29T00:59:20.153Z,990.15
2017-06-29T01:00:32.698Z,990.2
2017-06-29T01:01:45.262Z,990.11
2017-06-29T01:02:57.807Z,990.15
2017-06-29T01:04:10.050Z,990.01
2017-06-29T01:05:22.607Z,990.01
2017-06-29T01:06:35.095Z,989.99
2017-06-29T01:07:47.317Z,989.95
2017-06-29T01:08:59.859Z,989.93
2017-06-29T01:10:12.437Z,989.9
2017-06-29T01:11:24.672Z,989.89
2017-06-29T01:12:37.215Z,989.88
2017-06-29T01:13:49.747Z,989.86
2017-06-29T01:15:02.296Z,989.88
2017-06-29T01:16:14.839Z,989.87
2017-06-29T01:17:27.084Z,989.9
2017-06-29T01:18:39.610Z,989.87
2017-06-29T01:19:51.833Z,989.85
2017-06-29T01:21:04.436Z,989.9
2017-06-29T01:22:16.964Z,989.87
2017-06-29T01:23:29.519Z,989.86
2017-06-29T01:24:41.769Z,989.86
2017-06-29T01:25:54.322Z,989.86
2017-06-29T01:27:06.855Z,989.81
2017-06-29T01:28:19.127Z,989.87
2017-06-29T01:29:31.410Z,989.87
2017-06-29T01:30:43.982Z,989.9
2017-06-29T01:31:56.539Z,989.89
2017-06-29T01:33:08.509Z,989.89
2017-06-29T01:34:21.066Z,989.82
2017-06-29T01:35:33.623Z,989.82
2017-06-29T01:36:45.872Z,989.74
2017-06-29T01:37:58.441Z,989.77
2017-06-29T01:39:10.687Z,989.78
2017-06-29T01:40:23.235Z,989.73
2017-06-29T01:41:35.782Z,989.71
2017-06-29T01:42:48.316Z,989.68
2017-06-29T01:44:00.598Z,989.65
2017-06-29T01:45:13.411Z,989.64
2017-06-29T01:46:25.954Z,989.65
2017-06-29T01:47:38.499Z,989.65
2017-06-29T01:48:51.051Z,989.62
2017-06-29T01:50:03.634Z,989.64
2017-06-29T01:51:16.199Z,989.62
2017-06-29T01:52:28.441Z,989.63
2017-06-29T01:53:40.994Z,989.59
2017-06-29T01:54:53.561Z,989.59
2017-06-29T01:56:06.131Z,989.59
2017-06-29T01:57:18.682Z,989.59
2017-06-29T01:58:30.923Z,989.58
2017-06-29T01:59:43.483Z,989.56
2017-06-29T02:00:56.059Z,989.53
2017-06-29T02:02:08.309Z,989.54
2017-06-29T02:03:20.859Z,989.49
2017-06-29T02:04:33.424Z,989.48
2017-06-29T02:05:46.009Z,989.48
2017-06-29T02:06:58.572Z,989.45
2017-06-29T02:08:10.813Z,989.47
2017-06-29T02:09:23.386Z,989.44
2017-06-29T02:10:35.945Z,989.49
2017-06-29T02:11:48.433Z,989.45
2017-06-29T02:13:01.018Z,989.46
2017-06-29T02:14:13.541Z,989.48
2017-06-29T02:15:26.115Z,989.45
2017-06-29T02:16:38.359Z,989.46
2017-06-29T02:17:50.605Z,989.43
2017-06-29T02:19:03.152Z,989.4
2017-06-29T02:20:15.676Z,989.39
2017-06-29T02:21:28.189Z,989.36
2017-06-29T02:22:40.738Z,989.35
2017-06-29T02:23:53.006Z,989.29
2017-06-29T02:25:05.576Z,989.28
2017-06-29T02:26:17.825Z,989.29
2017-06-29T02:27:30.368Z,989.25
2017-06-29T02:28:42.637Z,989.25
2017-06-29T02:29:55.181Z,989.21
2017-06-29T02:31:07.410Z,989.2
2017-06-29T02:32:19.957Z,989.23
2017-06-29T02:33:32.520Z,989.15
2017-06-29T02:34:45.065Z,989.22
2017-06-29T02:35:57.288Z,989.23
2017-06-29T02:37:09.529Z,989.18
2017-06-29T02:38:22.064Z,989.2
2017-06-29T02:39:34.634Z,989.18
2017-06-29T02:40:47.202Z,989.16
2017-06-29T02:41:59.754Z,989.16
2017-06-29T02:43:12.294Z,989.19
2017-06-29T02:44:25.124Z,989.2
2017-06-29T02:45:37.389Z,989.09
2017-06-29T02:46:49.925Z,989.13
2017-06-29T02:48:02.482Z,989.1
2017-06-29T02:49:14.725Z,989.08
2017-06-29T02:50:27.312Z,989.06
2017-06-29T02:51:39.847Z,989.03
2017-06-29T02:52:52.386Z,989.01
2017-06-29T02:54:04.928Z,988.96
2017-06-29T02:55:17.485Z,989.01
2017-06-29T02:56:30.027Z,989.02
2017-06-29T02:57:42.591Z,989.02
2017-06-29T02:58:55.137Z,988.99
2017-06-29T03:00:07.405Z,988.98
2017-06-29T03:01:19.951Z,989.01
2017-06-29T03:02:32.502Z,989.01
2017-06-29T03:03:45.021Z,989
2017-06-29T03:04:57.578Z,988.99
2017-06-29T03:06:10.146Z,988.97
2017-06-29T03:07:22.683Z,988.99
2017-06-29T03:08:34.954Z,988.96
2017-06-29T03:09:47.526Z,988.97
2017-06-29T03:11:00.088Z,989.02
2017-06-29T03:12:12.049Z,988.99
2017-06-29T03:13:24.292Z,988.97
2017-06-29T03:14:36.837Z,988.98
2017-06-29T03:15:49.075Z,989.01
2017-06-29T03:17:01.625Z,989.05
2017-06-29T03:18:13.905Z,989.07
2017-06-29T03:19:26.443Z,989.08
2017-06-29T03:20:39.035Z,989.09
2017-06-29T03:21:51.606Z,989.08
2017-06-29T03:23:04.459Z,989.14
2017-06-29T03:24:17.003Z,989.1
2017-06-29T03:25:29.539Z,989.11
2017-06-29T03:26:41.489Z,989.09
2017-06-29T03:27:54.293Z,989.07
2017-06-29T03:29:06.840Z,989.06
2017-06-29T03:30:19.386Z,989.01
2017-06-29T03:31:31.631Z,988.98
2017-06-29T03:32:43.906Z,988.95
2017-06-29T03:33:56.172Z,988.95
2017-06-29T03:35:08.717Z,988.92
2017-06-29T03:36:21.261Z,988.91
2017-06-29T03:37:33.823Z,988.87
2017-06-29T03:38:46.686Z,988.89
2017-06-29T03:39:58.929Z,988.88
2017-06-29T03:41:11.469Z,988.92
2017-06-29T03:42:23.990Z,988.93
2017-06-29T03:43:36.265Z,988.95
2017-06-29T03:44:48.791Z,988.9
2017-06-29T03:46:01.321Z,988.93
2017-06-29T03:47:13.907Z,988.9
2017-06-29T03:48:26.146Z,988.86
2017-06-29T03:49:38.420Z,988.91
2017-06-29T03:50:50.640Z,988.92
2017-06-29T03:52:03.210Z,988.9
2017-06-29T03:53:15.800Z,988.94
2017-06-29T03:54:28.361Z,988.95
2017-06-29T03:55:40.904Z,988.92
2017-06-29T03:56:53.462Z,988.87
2017-06-29T03:58:05.733Z,988.86
2017-06-29T03:59:18.270Z,988.83
2017-06-29T04:00:31.040Z,988.82
2017-06-29T04:01:43.581Z,988.77
2017-06-29T04:02:55.854Z,988.8
2017-06-29T04:04:08.417Z,988.75
2017-06-29T04:05:20.690Z,988.78
2017-06-29T04:06:32.933Z,988.74
2017-06-29T04:07:45.509Z,988.73
2017-06-29T04:08:58.057Z,988.68
2017-06-29T04:10:10.620Z,988.67
2017-06-29T04:11:22.859Z,988.61
2017-06-29T04:12:35.396Z,988.59
2017-06-29T04:13:47.956Z,988.63
2017-06-29T04:15:00.203Z,988.58
2017-06-29T04:16:12.456Z,988.58
2017-06-29T04:17:25.001Z,988.6
2017-06-29T04:18:37.279Z,988.54
2017-06-29T04:19:49.837Z,988.55
2017-06-29T04:21:02.084Z,988.51
2017-06-29T04:22:14.956Z,988.45
2017-06-29T04:23:27.189Z,988.44
2017-06-29T04:24:39.726Z,988.48
2017-06-29T04:25:52.296Z,988.45
2017-06-29T04:27:04.863Z,988.48
2017-06-29T04:28:17.439Z,988.48
2017-06-29T04:29:30.013Z,988.54
2017-06-29T04:30:42.586Z,988.6
2017-06-29T04:31:55.150Z,988.57
2017-06-29T04:33:07.996Z,988.52
2017-06-29T04:34:20.560Z,988.43
2017-06-29T04:35:33.109Z,988.4
2017-06-29T04:36:45.372Z,988.34
2017-06-29T04:37:57.330Z,988.35
2017-06-29T04:39:09.573Z,988.3
2017-06-29T04:40:22.106Z,988.24
2017-06-29T04:41:34.657Z,988.24
2017-06-29T04:42:47.190Z,988.27
2017-06-29T04:44:00.004Z,988.25
2017-06-29T04:45:12.559Z,988.28
2017-06-29T04:46:24.816Z,988.28
2017-06-29T04:47:37.383Z,988.24
2017-06-29T04:48:49.649Z,988.27
2017-06-29T04:50:02.208Z,988.27
2017-06-29T04:51:14.453Z,988.22
2017-06-29T04:52:27.031Z,988.22
2017-06-29T04:53:39.580Z,988.22
2017-06-29T04:54:52.141Z,988.21
2017-06-29T04:56:04.694Z,988.17
2017-06-29T04:57:17.265Z,988.16
2017-06-29T04:58:29.182Z,988.12
2017-06-29T04:59:41.454Z,988.08
2017-06-29T05:00:54.004Z,988.08
2017-06-29T05:02:06.580Z,988.06
2017-06-29T05:03:18.844Z,988.06
2017-06-29T05:04:31.415Z,988.07
2017-06-29T05:05:43.914Z,988.07
2017-06-29T05:06:56.504Z,988.1
2017-06-29T05:08:09.075Z,988.12
2017-06-29T05:09:21.699Z,988.09
2017-06-29T05:10:33.975Z,988.04
2017-06-29T05:11:46.523Z,988.01
2017-06-29T05:12:59.061Z,987.99
2017-06-29T05:14:11.581Z,987.93
2017-06-29T05:15:24.146Z,987.91
2017-06-29T05:16:36.401Z,987.89
2017-06-29T05:17:48.934Z,987.89
2017-06-29T05:19:01.466Z,987.87
2017-06-29T05:20:14.051Z,987.78
2017-06-29T05:21:26.597Z,987.82
2017-06-29T05:22:39.422Z,987.81
2017-06-29T05:23:51.646Z,987.86
2017-06-29T05:25:04.194Z,987.89
2017-06-29T05:26:16.791Z,987.95
2017-06-29T05:27:29.356Z,987.96
2017-06-29T05:28:41.584Z,988.02
2017-06-29T05:29:53.533Z,987.98
2017-06-29T05:31:06.099Z,988.02
2017-06-29T05:32:18.368Z,988.06
2017-06-29T05:33:30.896Z,988.13
2017-06-29T05:34:43.477Z,988.1
2017-06-29T05:35:56.009Z,988.08
2017-06-29T05:37:08.548Z,988.14
2017-06-29T05:38:21.084Z,988.1
2017-06-29T05:39:33.648Z,988.06
2017-06-29T05:40:46.219Z,988.05
2017-06-29T05:41:58.789Z,988.1
2017-06-29T05:43:11.353Z,988.09
2017-06-29T05:44:23.582Z,988.04
2017-06-29T05:45:36.159Z,988.07
2017-06-29T05:46:48.719Z,988.06
2017-06-29T05:48:00.664Z,988.02
2017-06-29T05:49:13.215Z,987.99
2017-06-29T05:50:25.489Z,987.97
2017-06-29T05:51:37.748Z,987.96
2017-06-29T05:52:50.305Z,988
2017-06-29T05:54:02.552Z,988
2017-06-29T05:55:15.140Z,988
2017-06-29T05:56:27.704Z,988.02
2017-06-29T05:57:39.627Z,988.06
2017-06-29T05:58:52.177Z,988.1
2017-06-29T06:00:04.970Z,988.03
2017-06-29T06:01:17.499Z,988.01
2017-06-29T06:02:29.758Z,988.04
2017-06-29T06:03:42.308Z,988.02
2017-06-29T06:04:54.587Z,988.06
2017-06-29T06:06:07.146Z,988.03
2017-06-29T06:07:19.655Z,988.03
2017-06-29T06:08:32.222Z,988
2017-06-29T06:09:44.797Z,988.02
2017-06-29T06:10:57.062Z,988.04
2017-06-29T06:12:09.629Z,987.99
2017-06-29T06:13:22.136Z,987.93
2017-06-29T06:14:34.727Z,987.92
2017-06-29T06:15:47.292Z,987.97
2017-06-29T06:16:59.538Z,987.93
2017-06-29T06:18:12.071Z,987.9
2017-06-29T06:19:24.639Z,987.86
2017-06-29T06:20:37.186Z,987.86
2017-06-29T06:21:50.055Z,987.85
2017-06-29T06:23:02.574Z,987.84
2017-06-29T06:24:15.120Z,987.85
2017-06-29T06:25:27.670Z,987.97
2017-06-29T06:26:40.221Z,988.04
2017-06-29T06:27:52.775Z,988.16
2017-06-29T06:29:05.368Z,988.14
2017-06-29T06:30:17.905Z,988.08
2017-06-29T06:31:30.466Z,987.99
2017-06-29T06:32:43.031Z,987.92
2017-06-29T06:33:55.584Z,987.81
2017-06-29T06:35:08.138Z,987.93
2017-06-29T06:36:20.689Z,987.92
2017-06-29T06:37:33.259Z,987.85
2017-06-29T06:38:44.915Z,987.88
2017-06-29T06:39:57.194Z,987.94
2017-06-29T06:41:09.506Z,987.78
2017-06-29T06:42:21.763Z,987.68
2017-06-29T06:43:34.309Z,987.63
2017-06-29T06:44:46.556Z,987.62
2017-06-29T06:45:58.822Z,987.58
2017-06-29T06:47:11.388Z,987.56
2017-06-29T06:48:23.669Z,987.57
2017-06-29T06:49:36.248Z,987.64
2017-06-29T06:50:48.782Z,987.66
2017-06-29T06:52:01.332Z,987.68
2017-06-29T06:53:13.298Z,987.67
2017-06-29T06:54:25.875Z,987.7
2017-06-29T06:55:38.133Z,987.74
2017-06-29T06:56:50.393Z,987.8
2017-06-29T06:58:02.940Z,987.77
2017-06-29T06:59:15.476Z,987.79
2017-06-29T07:00:28.299Z,987.85
2017-06-29T07:01:40.551Z,987.94
2017-06-29T07:02:53.129Z,987.91
2017-06-29T07:04:05.703Z,987.84
2017-06-29T07:05:18.233Z,987.78
2017-06-29T07:06:30.774Z,987.76
2017-06-29T07:07:42.998Z,987.73
2017-06-29T07:08:55.245Z,987.62
2017-06-29T07:10:07.190Z,987.61
2017-06-29T07:11:19.474Z,987.64
2017-06-29T07:12:32.020Z,987.68
2017-06-29T07:13:44.559Z,987.7
2017-06-29T07:14:57.120Z,987.62
2017-06-29T07:16:09.672Z,987.73
2017-06-29T07:17:22.243Z,987.79
2017-06-29T07:18:34.854Z,987.69
2017-06-29T07:19:47.390Z,987.65
2017-06-29T07:20:59.954Z,987.61
2017-06-29T07:22:12.224Z,987.55
2017-06-29T07:23:24.771Z,987.59
2017-06-29T07:24:37.343Z,987.59
2017-06-29T07:25:49.591Z,987.66
2017-06-29T07:27:01.854Z,987.66
2017-06-29T07:28:14.400Z,987.71
2017-06-29T07:29:26.943Z,987.71
2017-06-29T07:30:39.500Z,987.73
2017-06-29T07:31:52.067Z,987.64
2017-06-29T07:33:04.616Z,987.58
2017-06-29T07:34:17.176Z,987.5
2017-06-29T07:35:29.435Z,987.45
2017-06-29T07:36:41.959Z,987.46
2017-06-29T07:37:54.846Z,987.48
2017-06-29T07:39:07.091Z,987.35
2017-06-29T07:40:19.348Z,987.35
2017-06-29T07:41:31.605Z,987.33
2017-06-29T07:42:43.872Z,987.34
2017-06-29T07:43:56.444Z,987.37
2017-06-29T07:45:08.975Z,987.33
2017-06-29T07:46:21.243Z,987.29
2017-06-29T07:47:33.777Z,987.31
2017-06-29T07:48:46.309Z,987.26
2017-06-29T07:49:58.282Z,987.26
2017-06-29T07:51:10.552Z,987.3
2017-06-29T07:52:23.120Z,987.29
2017-06-29T07:53:35.669Z,987.29
2017-06-29T07:54:48.232Z,987.28
2017-06-29T07:56:00.474Z,987.27
2017-06-29T07:57:12.730Z,987.3
2017-06-29T07:58:25.306Z,987.31
2017-06-29T07:59:37.244Z,987.33
2017-06-29T08:00:49.793Z,987.33
2017-06-29T08:02:02.043Z,987.23
2017-06-29T08:03:14.606Z,987.3
2017-06-29T08:04:27.158Z,987.25
2017-06-29T08:05:39.421Z,987.33
2017-06-29T08:06:51.729Z,987.31
2017-06-29T08:08:03.972Z,987.39
2017-06-29T08:09:16.540Z,987.34
2017-06-29T08:10:29.102Z,987.36
2017-06-29T08:11:41.063Z,987.36
2017-06-29T08:12:53.631Z,987.33
2017-06-29T08:14:06.178Z,987.33
2017-06-29T08:15:18.716Z,987.29
2017-06-29T08:16:31.270Z,987.32
2017-06-29T08:17:43.821Z,987.31
2017-06-29T08:18:56.083Z,987.28
2017-06-29T08:20:08.071Z,987.21
2017-06-29T08:21:20.024Z,987.15
2017-06-29T08:22:32.588Z,987.17
2017-06-29T08:23:45.146Z,987.26
2017-06-29T08:24:57.721Z,987.29
2017-06-29T08:26:09.955Z,987.26
2017-06-29T08:27:22.250Z,987.25
2017-06-29T08:28:34.817Z,987.22
2017-06-29T08:29:47.351Z,987.16
2017-06-29T08:30:59.944Z,987.16
2017-06-29T08:32:12.487Z,987.11
2017-06-29T08:33:24.751Z,987.14
2017-06-29T08:34:37.333Z,987.17
2017-06-29T08:35:49.576Z,987.19
2017-06-29T08:37:02.117Z,987.2
2017-06-29T08:38:14.646Z,987.17
2017-06-29T08:39:27.180Z,987.2
2017-06-29T08:40:39.710Z,987.19
2017-06-29T08:41:51.650Z,987.21
2017-06-29T08:43:04.165Z,987.2
2017-06-29T08:44:16.099Z,987.18
2017-06-29T08:45:28.364Z,987.17
2017-06-29T08:46:40.959Z,987.14
2017-06-29T08:47:53.505Z,987.05
2017-06-29T08:49:05.757Z,987.02
2017-06-29T08:50:17.431Z,987.08
2017-06-29T08:51:29.695Z,987.14
2017-06-29T08:52:41.968Z,987.14
2017-06-29T08:53:53.910Z,987.07
2017-06-29T08:55:06.153Z,986.94
2017-06-29T08:56:18.110Z,986.8
2017-06-29T08:57:30.368Z,986.74
2017-06-29T08:58:42.648Z,986.73
2017-06-29T08:59:55.251Z,986.86
2017-06-29T09:01:07.518Z,986.79
2017-06-29T09:02:20.057Z,986.77
2017-06-29T09:03:32.302Z,986.81
2017-06-29T09:04:44.554Z,986.97
2017-06-29T09:05:57.123Z,986.98
2017-06-29T09:07:09.671Z,987.03
2017-06-29T09:08:21.911Z,986.99
2017-06-29T09:09:33.836Z,986.97
2017-06-29T09:10:46.411Z,986.86
2017-06-29T09:11:58.948Z,986.92
2017-06-29T09:13:10.881Z,986.9
2017-06-29T09:14:23.433Z,986.77
2017-06-29T09:15:35.943Z,986.75
2017-06-29T09:16:48.516Z,986.74
2017-06-29T09:18:00.762Z,986.67
2017-06-29T09:19:13.299Z,986.66
2017-06-29T09:20:25.851Z,986.72
2017-06-29T09:21:38.366Z,986.68
2017-06-29T09:22:50.963Z,986.7
2017-06-29T09:24:03.253Z,986.67
2017-06-29T09:25:15.774Z,986.67
2017-06-29T09:26:28.356Z,986.71
2017-06-29T09:27:40.900Z,986.72
2017-06-29T09:28:53.459Z,986.72
2017-06-29T09:30:05.691Z,986.63
2017-06-29T09:31:18.265Z,986.63
2017-06-29T09:32:30.809Z,986.62
2017-06-29T09:33:42.753Z,986.69
2017-06-29T09:34:55.321Z,986.74
2017-06-29T09:36:07.920Z,986.67
2017-06-29T09:37:19.845Z,986.6
2017-06-29T09:38:32.392Z,986.53
2017-06-29T09:39:44.651Z,986.57
2017-06-29T09:40:57.197Z,986.52
2017-06-29T09:42:09.190Z,986.5
2017-06-29T09:43:21.747Z,986.44
2017-06-29T09:44:33.992Z,986.41
2017-06-29T09:45:46.234Z,986.41
2017-06-29T09:46:58.801Z,986.36
2017-06-29T09:48:11.358Z,986.35
2017-06-29T09:49:23.904Z,986.34
2017-06-29T09:50:36.164Z,986.38
2017-06-29T09:51:48.733Z,986.38
2017-06-29T09:53:01.269Z,986.39
2017-06-29T09:54:13.541Z,986.39
2017-06-29T09:55:25.480Z,986.44
2017-06-29T09:56:37.742Z,986.52
2017-06-29T09:57:49.978Z,986.57
2017-06-29T09:59:02.511Z,986.55
2017-06-29T10:00:14.464Z,986.49
2017-06-29T10:01:27.027Z,986.51
2017-06-29T10:02:39.279Z,986.59
2017-06-29T10:03:51.826Z,986.6
2017-06-29T10:05:04.417Z,986.6
2017-06-29T10:06:16.672Z,986.59
2017-06-29T10:07:28.929Z,986.64
2017-06-29T10:08:41.491Z,986.64
2017-06-29T10:09:53.733Z,986.59
2017-06-29T10:11:05.381Z,986.64
2017-06-29T10:12:17.920Z,986.64
2017-06-29T10:13:30.471Z,986.64
2017-06-29T10:14:43.033Z,986.72
2017-06-29T10:15:55.288Z,986.64
2017-06-29T10:17:07.854Z,986.68
2017-06-29T10:18:20.427Z,986.69
2017-06-29T10:19:32.995Z,986.82
2017-06-29T10:20:44.937Z,986.85
2017-06-29T10:21:57.139Z,986.95
2017-06-29T10:23:09.378Z,986.98
2017-06-29T10:24:21.936Z,987.01
2017-06-29T10:25:34.501Z,986.96
2017-06-29T10:26:47.074Z,986.91
2017-06-29T10:27:59.644Z,986.85
2017-06-29T10:29:11.939Z,986.81
2017-06-29T10:30:24.191Z,986.73
2017-06-29T10:31:36.433Z,986.7
2017-06-29T10:32:48.960Z,986.66
2017-06-29T10:34:01.488Z,986.66
2017-06-29T10:35:14.100Z,986.65
2017-06-29T10:36:26.346Z,986.59
2017-06-29T10:37:38.923Z,986.62
2017-06-29T10:38:51.472Z,986.64
2017-06-29T10:40:03.404Z,986.66
2017-06-29T10:41:15.943Z,986.63
2017-06-29T10:42:28.505Z,986.63
2017-06-29T10:43:41.065Z,986.59
